Startpagina
METAR-TAF:

METAR-TAF

Vliegvelden :

Perth, Australië

Perth Airport

breedte: 31-56S, lengte: 115-57E, hoogte: 20 m

Actueel weer

Dit bericht is 23 minuten geleden gemaakt, om 02:00 UTC
Wind 6 kt uit het oostzuidoosten, variërend tussen het oostnoordoosten en het zuidoosten
Temperatuur 15°C
Vochtigheid 51%
Druk 1026 hPa
Zicht 10 km of meer
Weinig wolken op 3500 ft

METAR: YPPH 270200Z 11006KT 070V140 9999 FEW035 15/05 Q1026 NOSIG

Tijdstip: 10:23 (02:23 UTC)

Verwachting

Dit bericht is 3 uur en het 25 minuten geleden gemaakt, om 22:58 UTC
Verwachting geldig van 27 om 00 UTC tot 28 om 06 UTC
Wind 8 kt uit het zuidoosten
Zicht 10 km of meer
geen wolken onder 1500 m en geen cumulonimbus

TAF: YPPH 262258Z 2700/2806 13008KT CAVOK

Waarnemingen en weersverwachtingen van meer dan 4000 vliegvelden (METAR en TAF).

De beschikbare stations zijn de gele en rode punten op de kaart.

Ga met uw muis naar het station om de naam te zien.

Klik dan om waarnemingen en weersverwachtingen te zien.

kaart wijzigen: klik op de groene knoppen met een zwart kruis om in te zoomen, op de groene knop met een streepje om uit te zoomen of op de groene pijlen voor aangrenzende kaarten.


METAR-TAF: